sensor_id;sensor_type;location;lat;lon;timestamp;temperature;humidity
55219;DHT22;65463;43.864;20.136;2022-12-29T01:51:04;51.60;2227.20
55219;DHT22;65463;43.864;20.136;2022-12-29T01:53:32;51.50;2227.20
55219;DHT22;65463;43.864;20.136;2022-12-29T01:56:04;51.30;2227.20
55219;DHT22;65463;43.864;20.136;2022-12-29T01:58:33;51.20;2227.20
55219;DHT22;65463;43.864;20.136;2022-12-29T02:01:00;51.30;2227.20
55219;DHT22;65463;43.864;20.136;2022-12-29T02:03:27;51.60;2227.20
55219;DHT22;65463;43.864;20.136;2022-12-29T02:08:29;51.40;2227.20
55219;DHT22;65463;43.864;20.136;2022-12-29T02:10:59;51.50;2227.20
55219;DHT22;65463;43.864;20.136;2022-12-29T02:13:27;51.30;2227.20
55219;DHT22;65463;43.864;20.136;2022-12-29T02:24:35;52.00;2227.20
55219;DHT22;65463;43.864;20.136;2022-12-29T02:27:14;77.00;2073.60
55219;DHT22;65463;43.864;20.136;2022-12-29T02:32:53;52.00;2227.20
55219;DHT22;65463;43.864;20.136;2022-12-29T07:24:25;77.60;2227.20
55219;DHT22;65463;43.864;20.136;2022-12-29T07:26:55;77.10;2227.20
55219;DHT22;65463;43.864;20.136;2022-12-29T07:48:50;77.70;2227.20
55219;DHT22;65463;43.864;20.136;2022-12-29T07:51:16;77.60;2227.20
55219;DHT22;65463;43.864;20.136;2022-12-29T07:53:42;77.50;2227.20
55219;DHT22;65463;43.864;20.136;2022-12-29T07:56:08;77.60;2227.20
55219;DHT22;65463;43.864;20.136;2022-12-29T07:58:33;77.60;2227.20
55219;DHT22;65463;43.864;20.136;2022-12-29T08:00:59;77.60;2227.20
55219;DHT22;65463;43.864;20.136;2022-12-29T08:03:25;77.40;2227.20
55219;DHT22;65463;43.864;20.136;2022-12-29T08:05:51;77.10;2227.20
55219;DHT22;65463;43.864;20.136;2022-12-29T08:08:17;77.30;2227.20
55219;DHT22;65463;43.864;20.136;2022-12-29T08:20:33;102.50;2227.20
55219;DHT22;65463;43.864;20.136;2022-12-29T10:04:00;103.10;2227.20
55219;DHT22;65463;43.864;20.136;2022-12-29T10:43:27;128.10;2252.80
55219;DHT22;65463;43.864;20.136;2022-12-29T10:46:12;103.10;2227.20
55219;DHT22;65463;43.864;20.136;2022-12-29T10:51:07;103.20;2227.20
55219;DHT22;65463;43.864;20.136;2022-12-29T10:53:51;102.90;2227.20
55219;DHT22;65463;43.864;20.136;2022-12-29T10:56:51;128.00;2252.80
55219;DHT22;65463;43.864;20.136;2022-12-29T10:59:29;128.00;2252.80
55219;DHT22;65463;43.864;20.136;2022-12-29T11:07:21;128.90;2252.80
55219;DHT22;65463;43.864;20.136;2022-12-29T11:09:47;128.80;2252.80
55219;DHT22;65463;43.864;20.136;2022-12-29T11:12:28;128.90;2252.80
55219;DHT22;65463;43.864;20.136;2022-12-29T11:17:53;128.60;2252.80
55219;DHT22;65463;43.864;20.136;2022-12-29T11:22:57;128.10;2252.80
55219;DHT22;65463;43.864;20.136;2022-12-29T11:25:23;128.10;2252.80
55219;DHT22;65463;43.864;20.136;2022-12-29T11:28:14;128.00;2252.80
55219;DHT22;65463;43.864;20.136;2022-12-29T11:30:41;128.40;2252.80
55219;DHT22;65463;43.864;20.136;2022-12-29T11:33:08;128.50;2252.80
55219;DHT22;65463;43.864;20.136;2022-12-29T11:35:42;128.70;2252.80
55219;DHT22;65463;43.864;20.136;2022-12-29T11:38:26;128.60;2252.80
55219;DHT22;65463;43.864;20.136;2022-12-29T11:40:55;128.60;2252.80
55219;DHT22;65463;43.864;20.136;2022-12-29T11:43:34;128.80;2252.80
55219;DHT22;65463;43.864;20.136;2022-12-29T11:46:02;128.80;2252.80
55219;DHT22;65463;43.864;20.136;2022-12-29T11:48:33;128.30;2252.80
55219;DHT22;65463;43.864;20.136;2022-12-29T11:51:03;128.70;2252.80
55219;DHT22;65463;43.864;20.136;2022-12-29T11:53:42;128.80;2252.80
55219;DHT22;65463;43.864;20.136;2022-12-29T11:58:38;154.10;2252.80
55219;DHT22;65463;43.864;20.136;2022-12-29T12:01:30;153.90;2252.80
55219;DHT22;65463;43.864;20.136;2022-12-29T12:04:18;154.00;2252.80
55219;DHT22;65463;43.864;20.136;2022-12-29T12:07:15;153.60;2252.80
55219;DHT22;65463;43.864;20.136;2022-12-29T12:10:11;153.80;2252.80
55219;DHT22;65463;43.864;20.136;2022-12-29T12:13:02;154.00;2252.80
55219;DHT22;65463;43.864;20.136;2022-12-29T12:15:56;128.90;2252.80
55219;DHT22;65463;43.864;20.136;2022-12-29T12:18:34;128.60;2252.80
55219;DHT22;65463;43.864;20.136;2022-12-29T12:21:30;128.00;2252.80
55219;DHT22;65463;43.864;20.136;2022-12-29T12:26:36;128.70;2252.80
55219;DHT22;65463;43.864;20.136;2022-12-29T12:29:26;128.90;2252.80
55219;DHT22;65463;43.864;20.136;2022-12-29T12:32:01;128.90;2252.80
55219;DHT22;65463;43.864;20.136;2022-12-29T12:34:37;154.00;2252.80
55219;DHT22;65463;43.864;20.136;2022-12-29T12:40:31;179.20;2252.80
55219;DHT22;65463;43.864;20.136;2022-12-29T12:46:11;153.80;2252.80
55219;DHT22;65463;43.864;20.136;2022-12-29T12:49:08;128.60;2252.80
55219;DHT22;65463;43.864;20.136;2022-12-29T13:00:18;153.90;2252.80
55219;DHT22;65463;43.864;20.136;2022-12-29T13:16:28;153.80;2252.80
55219;DHT22;65463;43.864;20.136;2022-12-29T13:25:12;154.00;2252.80
55219;DHT22;65463;43.864;20.136;2022-12-29T13:27:59;153.70;2252.80
55219;DHT22;65463;43.864;20.136;2022-12-29T13:41:11;154.50;2252.80
55219;DHT22;65463;43.864;20.136;2022-12-29T13:59:38;179.50;2252.80
55219;DHT22;65463;43.864;20.136;2022-12-29T14:08:04;179.40;2252.80
55219;DHT22;65463;43.864;20.136;2022-12-29T14:10:45;179.50;2252.80
55219;DHT22;65463;43.864;20.136;2022-12-29T14:13:13;179.40;2252.80
55219;DHT22;65463;43.864;20.136;2022-12-29T14:15:42;179.30;2252.80
55219;DHT22;65463;43.864;20.136;2022-12-29T14:18:25;179.30;2252.80
55219;DHT22;65463;43.864;20.136;2022-12-29T15:31:21;153.70;2252.80
55219;DHT22;65463;43.864;20.136;2022-12-29T15:46:30;128.70;2252.80
55219;DHT22;65463;43.864;20.136;2022-12-29T15:48:58;128.60;2252.80
55219;DHT22;65463;43.864;20.136;2022-12-29T15:51:34;128.50;2252.80
55219;DHT22;65463;43.864;20.136;2022-12-29T15:54:01;128.60;2252.80
